createdAt,value
2018-09-28T00:01:12.045Z,100835.64
2018-09-28T00:03:40.204Z,100833.02
2018-09-28T00:06:08.167Z,100831.17
2018-09-28T00:08:36.185Z,100833.41
2018-09-28T00:11:04.168Z,100834.36
2018-09-28T00:13:32.361Z,100830.92
2018-09-28T00:16:00.631Z,100835.88
2018-09-28T00:18:28.841Z,100842.44
2018-09-28T00:20:57.001Z,100837.36
2018-09-28T00:23:25.281Z,100843.89
2018-09-28T00:25:53.579Z,100835.98
2018-09-28T00:28:21.802Z,100832.15
2018-09-28T00:30:50.042Z,100831.41
2018-09-28T00:33:18.369Z,100837.32
2018-09-28T00:35:46.376Z,100844.98
2018-09-28T00:38:14.418Z,100837.68
2018-09-28T00:40:42.398Z,100841.27
2018-09-28T00:43:10.781Z,100846.08
2018-09-28T00:45:38.763Z,100842.43
2018-09-28T00:48:06.782Z,100843.66
2018-09-28T00:50:34.745Z,100850.64
2018-09-28T00:53:02.803Z,100852.30
2018-09-28T00:55:30.758Z,100852.50
2018-09-28T00:57:58.753Z,100851.27
2018-09-28T01:00:26.726Z,100861.20
2018-09-28T01:02:54.733Z,100850.73
2018-09-28T01:05:22.715Z,100856.33
2018-09-28T01:07:51.245Z,100855.09
2018-09-28T01:10:19.493Z,100851.73
2018-09-28T01:12:47.848Z,100847.16
2018-09-28T01:15:15.803Z,100841.17
2018-09-28T01:17:43.899Z,100850.17
2018-09-28T01:20:11.926Z,100837.18
2018-09-28T01:22:40.022Z,100842.03
2018-09-28T01:25:08.318Z,100833.88
2018-09-28T01:27:36.327Z,100835.47
2018-09-28T01:30:04.508Z,100842.23
2018-09-28T01:32:32.637Z,100832.55
2018-09-28T01:35:00.865Z,100825.66
2018-09-28T01:37:28.945Z,100826.69
2018-09-28T01:39:57.068Z,100822.48
2018-09-28T01:42:25.103Z,100829.38
2018-09-28T01:44:53.164Z,100820.42
2018-09-28T01:47:21.138Z,100826.87
2018-09-28T01:49:49.132Z,100825.02
2018-09-28T01:52:17.144Z,100830.17
2018-09-28T01:54:45.188Z,100832.28
2018-09-28T01:57:13.143Z,100837.28
2018-09-28T01:59:41.168Z,100835.69
2018-09-28T02:02:09.123Z,100841.01
2018-09-28T02:04:37.103Z,100846.13
2018-09-28T02:07:05.150Z,100847.88
2018-09-28T02:09:33.185Z,100860.00
2018-09-28T02:12:01.236Z,100857.73
2018-09-28T02:14:29.594Z,100855.83
2018-09-28T02:16:57.735Z,100863.31
2018-09-28T02:19:25.871Z,100862.36
2018-09-28T02:21:54.152Z,100862.19
2018-09-28T02:24:22.334Z,100858.53
2018-09-28T02:26:50.474Z,100854.97
2018-09-28T02:29:18.674Z,100854.64
2018-09-28T02:31:46.770Z,100848.95
2018-09-28T02:34:14.764Z,100844.97
2018-09-28T02:36:42.707Z,100848.66
2018-09-28T02:39:10.782Z,100845.03
2018-09-28T02:41:38.813Z,100844.41
2018-09-28T02:44:07.167Z,100838.84
2018-09-28T02:46:35.293Z,100835.05
2018-09-28T02:49:06.474Z,100834.48
2018-09-28T02:51:34.708Z,100829.97
2018-09-28T02:54:02.832Z,100826.53
2018-09-28T02:56:31.009Z,100821.88
2018-09-28T02:58:59.180Z,100805.77
2018-09-28T03:01:27.209Z,100820.48
2018-09-28T03:03:55.358Z,100827.55
2018-09-28T03:06:23.592Z,100830.77
2018-09-28T03:08:51.678Z,100831.02
2018-09-28T03:11:19.740Z,100837.61
2018-09-28T03:13:47.805Z,100829.11
2018-09-28T03:16:16.043Z,100834.13
2018-09-28T03:18:44.251Z,100841.20
2018-09-28T03:21:12.397Z,100848.64
2018-09-28T03:23:40.519Z,100855.46
2018-09-28T03:26:08.717Z,100864.80
2018-09-28T03:28:36.936Z,100861.44
2018-09-28T03:31:05.166Z,100865.77
2018-09-28T03:33:33.316Z,100864.76
2018-09-28T03:36:01.547Z,100866.72
2018-09-28T03:38:29.735Z,100866.47
2018-09-28T03:40:57.926Z,100867.17
2018-09-28T03:43:26.109Z,100859.98
2018-09-28T03:45:54.560Z,100859.50
2018-09-28T03:48:22.674Z,100866.70
2018-09-28T03:50:50.854Z,100870.83
2018-09-28T03:53:18.967Z,100862.77
2018-09-28T03:55:47.265Z,100871.73
2018-09-28T03:58:15.526Z,100865.83
2018-09-28T04:00:43.732Z,100877.80
2018-09-28T04:03:11.951Z,100870.25
2018-09-28T04:05:40.132Z,100881.56
2018-09-28T04:08:08.791Z,100884.31
2018-09-28T04:10:37.050Z,100882.86
2018-09-28T04:13:05.287Z,100886.03
2018-09-28T04:15:33.608Z,100880.52
2018-09-28T04:18:01.867Z,100876.91
2018-09-28T04:20:30.067Z,100881.90
2018-09-28T04:22:58.220Z,100881.67
2018-09-28T04:25:26.671Z,100874.64
2018-09-28T04:27:54.793Z,100881.98
2018-09-28T04:30:22.818Z,100882.50
2018-09-28T04:32:50.833Z,100889.30
2018-09-28T04:35:19.150Z,100884.08
2018-09-28T04:37:47.357Z,100892.48
2018-09-28T04:40:15.505Z,100903.16
2018-09-28T04:42:43.668Z,100910.78
2018-09-28T04:45:11.903Z,100908.16
2018-09-28T04:47:40.033Z,100912.25
2018-09-28T04:50:08.372Z,100912.16
2018-09-28T04:52:36.492Z,100913.93
2018-09-28T04:55:04.732Z,100914.31
2018-09-28T04:57:33.012Z,100917.77
2018-09-28T05:00:01.227Z,100926.08
2018-09-28T05:02:29.727Z,100918.37
2018-09-28T05:04:57.946Z,100932.58
2018-09-28T05:07:26.150Z,100932.67
2018-09-28T05:09:54.442Z,100937.35
2018-09-28T05:12:22.760Z,100945.42
2018-09-28T05:14:51.020Z,100942.52
2018-09-28T05:17:19.283Z,100951.98
2018-09-28T05:19:48.061Z,100949.81
2018-09-28T05:22:16.325Z,100963.01
2018-09-28T05:24:44.585Z,100970.22
2018-09-28T05:27:13.158Z,100969.98
2018-09-28T05:29:41.349Z,100978.73
2018-09-28T05:32:09.746Z,100980.89
2018-09-28T05:34:37.900Z,100978.48
2018-09-28T05:37:06.302Z,100979.32
2018-09-28T05:39:34.407Z,100981.85
2018-09-28T05:42:02.559Z,100983.52
2018-09-28T05:44:30.736Z,100980.41
2018-09-28T05:46:58.955Z,100982.70
2018-09-28T05:49:27.288Z,100987.83
2018-09-28T05:52:00.871Z,100996.22
2018-09-28T05:54:29.057Z,100995.14
2018-09-28T05:56:57.216Z,101000.56
2018-09-28T05:59:30.996Z,101012.21
2018-09-28T06:02:04.757Z,101026.71
2018-09-28T06:04:38.310Z,101027.78
2018-09-28T06:07:06.596Z,101033.27
2018-09-28T06:09:34.795Z,101042.98
2018-09-28T06:12:02.995Z,101042.15
2018-09-28T06:14:31.215Z,101046.53
2018-09-28T06:16:59.503Z,101049.03
2018-09-28T06:19:27.689Z,101060.77
2018-09-28T06:21:56.182Z,101065.55
2018-09-28T06:24:24.351Z,101063.53
2018-09-28T06:26:52.761Z,101070.51
2018-09-28T06:29:20.741Z,101067.37
2018-09-28T06:31:48.930Z,101067.39
2018-09-28T06:34:20.311Z,101071.94
2018-09-28T06:36:48.365Z,101072.50
2018-09-28T06:39:16.387Z,101067.00
2018-09-28T06:41:44.747Z,101082.80
2018-09-28T06:44:12.989Z,101083.88
2018-09-28T06:46:41.049Z,101091.20
2018-09-28T06:49:09.257Z,101097.22
2018-09-28T06:51:37.618Z,101094.87
2018-09-28T06:54:06.303Z,101095.27
2018-09-28T06:56:34.829Z,101106.16
2018-09-28T06:59:03.129Z,101107.96
2018-09-28T07:01:31.429Z,101108.56
2018-09-28T07:03:59.792Z,101113.11
2018-09-28T07:06:28.170Z,101125.36
2018-09-28T07:08:56.597Z,101126.06
2018-09-28T07:11:25.070Z,101129.17
2018-09-28T07:13:53.332Z,101133.14
2018-09-28T07:16:21.559Z,101143.84
2018-09-28T07:18:49.808Z,101148.53
2018-09-28T07:21:17.959Z,101147.92
2018-09-28T07:23:46.487Z,101148.05
2018-09-28T07:26:14.648Z,101156.81
2018-09-28T07:28:42.829Z,101167.75
2018-09-28T07:31:11.077Z,101170.14
2018-09-28T07:33:39.336Z,101166.67
2018-09-28T07:36:07.807Z,101165.94
2018-09-28T07:38:35.956Z,101174.83
2018-09-28T07:41:04.140Z,101173.95
2018-09-28T07:43:32.268Z,101187.16
2018-09-28T07:46:00.428Z,101197.23
2018-09-28T07:48:28.652Z,101208.81
2018-09-28T07:50:56.977Z,101221.20
2018-09-28T07:53:25.176Z,101222.28
2018-09-28T07:55:53.409Z,101219.70
2018-09-28T07:58:21.736Z,101222.53
2018-09-28T08:00:49.936Z,101228.60
2018-09-28T08:03:21.697Z,101226.06
2018-09-28T08:05:49.969Z,101227.86
2018-09-28T08:08:18.317Z,101230.78
2018-09-28T08:10:46.706Z,101240.14
2018-09-28T08:13:14.946Z,101238.17
2018-09-28T08:15:43.297Z,101231.03
2018-09-28T08:18:11.505Z,101235.41
2018-09-28T08:20:39.685Z,101248.77
2018-09-28T08:23:07.994Z,101243.27
2018-09-28T08:25:36.214Z,101245.71
2018-09-28T08:28:05.438Z,101240.12
2018-09-28T08:30:33.783Z,101246.16
2018-09-28T08:33:01.978Z,101245.21
2018-09-28T08:35:30.233Z,101244.30
2018-09-28T08:37:58.366Z,101243.95
2018-09-28T08:40:26.606Z,101246.95
2018-09-28T08:42:54.709Z,101242.88
2018-09-28T08:45:22.865Z,101244.55
2018-09-28T08:47:51.066Z,101247.19
2018-09-28T08:50:19.286Z,101249.83
2018-09-28T08:52:47.426Z,101252.70
2018-09-28T08:55:15.578Z,101259.95
2018-09-28T08:57:43.706Z,101261.83
2018-09-28T09:00:12.058Z,101270.94
2018-09-28T09:02:40.265Z,101268.75
2018-09-28T09:05:08.785Z,101264.14
2018-09-28T09:07:37.325Z,101258.95
2018-09-28T09:10:06.001Z,101272.52
2018-09-28T09:12:34.277Z,101266.05
2018-09-28T09:15:02.506Z,101275.48
2018-09-28T09:17:30.645Z,101276.33
2018-09-28T09:19:58.865Z,101276.48
2018-09-28T09:22:27.046Z,101275.17
2018-09-28T09:24:55.325Z,101269.16
2018-09-28T09:27:23.995Z,101275.90
2018-09-28T09:29:52.188Z,101284.21
2018-09-28T09:32:20.385Z,101276.01
2018-09-28T09:34:48.645Z,101283.90
2018-09-28T09:37:16.846Z,101289.85
2018-09-28T09:39:45.065Z,101289.70
2018-09-28T09:42:13.146Z,101295.89
2018-09-28T09:44:41.797Z,101298.81
2018-09-28T09:47:10.105Z,101302.13
2018-09-28T09:49:38.526Z,101297.80
2018-09-28T09:52:06.626Z,101308.34
2018-09-28T09:54:35.025Z,101301.20
2018-09-28T09:57:03.225Z,101296.35
2018-09-28T09:59:31.525Z,101307.67
2018-09-28T10:02:05.326Z,101300.03
2018-09-28T10:04:33.566Z,101305.47
2018-09-28T10:07:01.708Z,101305.74
2018-09-28T10:09:29.951Z,101307.78
2018-09-28T10:11:58.227Z,101304.69
2018-09-28T10:14:26.546Z,101310.80
2018-09-28T10:16:54.865Z,101307.56
2018-09-28T10:19:23.099Z,101313.72
2018-09-28T10:21:51.346Z,101302.67
2018-09-28T10:24:19.526Z,101307.25
2018-09-28T10:26:47.826Z,101315.84
2018-09-28T10:29:16.058Z,101314.63
2018-09-28T10:31:44.305Z,101306.50
2018-09-28T10:34:12.426Z,101313.33
2018-09-28T10:36:40.717Z,101300.70
2018-09-28T10:39:09.203Z,101309.37
2018-09-28T10:41:37.457Z,101307.13
2018-09-28T10:44:06.126Z,101303.59
2018-09-28T10:46:34.339Z,101310.55
2018-09-28T10:49:02.587Z,101298.89
2018-09-28T10:51:30.865Z,101295.56
2018-09-28T10:53:58.946Z,101302.89
2018-09-28T10:56:27.146Z,101295.84
2018-09-28T10:58:55.301Z,101283.28
2018-09-28T11:01:23.666Z,101280.55
2018-09-28T11:03:51.766Z,101283.87
2018-09-28T11:06:20.061Z,101290.32
2018-09-28T11:08:48.255Z,101287.05
2018-09-28T11:11:16.477Z,101279.27
2018-09-28T11:13:44.905Z,101278.34
2018-09-28T11:16:13.157Z,101276.36
2018-09-28T11:18:41.338Z,101277.05
2018-09-28T11:21:09.632Z,101278.38
2018-09-28T11:23:37.877Z,101285.78
2018-09-28T11:26:06.102Z,101274.98
2018-09-28T11:28:34.245Z,101269.06
2018-09-28T11:31:02.465Z,101260.50
2018-09-28T14:34:32.430Z,101296.32
2018-09-28T14:37:00.686Z,101296.26
2018-09-28T20:22:49.971Z,101702.45
2018-09-28T20:25:40.271Z,101696.20
2018-09-28T20:28:26.327Z,101700.77
2018-09-28T20:32:04.927Z,101697.23
